createdAt,value
2016-10-18T00:00:51.893Z,0
2016-10-18T00:01:51.878Z,0
2016-10-18T00:02:51.883Z,0
2016-10-18T00:03:52.407Z,0
2016-10-18T00:04:51.870Z,0
2016-10-18T00:05:51.823Z,0
2016-10-18T00:06:52.224Z,0
2016-10-18T00:07:51.816Z,0
2016-10-18T00:08:51.839Z,0
2016-10-18T00:09:51.792Z,0
2016-10-18T00:10:52.381Z,0
2016-10-18T00:11:52.101Z,0
2016-10-18T00:12:51.775Z,0
2016-10-18T00:13:51.761Z,0
2016-10-18T00:14:51.749Z,0
2016-10-18T00:15:51.721Z,0
2016-10-18T00:16:51.736Z,0
2016-10-18T00:17:51.725Z,0
2016-10-18T00:18:51.718Z,0
2016-10-18T00:19:51.736Z,0
2016-10-18T00:20:51.708Z,0
2016-10-18T00:21:51.682Z,0
2016-10-18T00:22:51.681Z,0
2016-10-18T00:23:51.716Z,0
2016-10-18T00:24:51.696Z,0
2016-10-18T00:25:51.637Z,0
2016-10-18T00:26:51.654Z,0
2016-10-18T00:27:51.648Z,0
2016-10-18T00:28:51.635Z,0
2016-10-18T00:29:51.610Z,0
2016-10-18T00:30:51.602Z,0
2016-10-18T00:31:51.598Z,0
2016-10-18T00:32:51.597Z,0
2016-10-18T00:33:51.599Z,0
2016-10-18T00:34:51.669Z,0
2016-10-18T00:35:51.565Z,0
2016-10-18T00:36:51.559Z,0
2016-10-18T00:37:51.549Z,0
2016-10-18T00:38:51.529Z,0
2016-10-18T00:39:51.537Z,0
2016-10-18T00:40:51.534Z,0
2016-10-18T00:41:51.545Z,0
2016-10-18T00:42:51.504Z,0
2016-10-18T00:43:51.490Z,0
2016-10-18T00:44:51.490Z,0
2016-10-18T00:45:51.470Z,0
2016-10-18T00:46:51.889Z,0
2016-10-18T00:47:51.455Z,0
2016-10-18T00:48:51.453Z,0
2016-10-18T00:49:51.431Z,0
2016-10-18T00:50:51.429Z,0
2016-10-18T00:51:51.420Z,0
2016-10-18T00:52:51.417Z,0
2016-10-18T00:53:51.398Z,0
2016-10-18T00:54:51.411Z,0
2016-10-18T00:55:51.400Z,0
2016-10-18T00:56:51.405Z,0
2016-10-18T00:57:51.382Z,0
2016-10-18T00:58:51.361Z,0
2016-10-18T00:59:51.364Z,0
2016-10-18T01:00:51.342Z,0
2016-10-18T01:01:51.339Z,0
2016-10-18T01:02:51.329Z,0
2016-10-18T01:03:51.310Z,0
2016-10-18T01:04:51.308Z,0
2016-10-18T01:05:51.312Z,0
2016-10-18T01:06:51.279Z,0
2016-10-18T01:07:51.309Z,0
2016-10-18T01:08:51.278Z,0
2016-10-18T01:09:51.445Z,0
2016-10-18T01:10:51.274Z,0
2016-10-18T01:11:51.260Z,0
2016-10-18T01:12:51.251Z,0
2016-10-18T01:13:51.204Z,0
2016-10-18T01:14:51.422Z,0
2016-10-18T01:15:51.197Z,0
2016-10-18T01:16:51.175Z,0
2016-10-18T01:17:51.177Z,0
2016-10-18T01:18:51.242Z,0
2016-10-18T01:19:51.196Z,0
2016-10-18T01:20:51.148Z,0
2016-10-18T01:21:51.138Z,0
2016-10-18T01:22:51.136Z,0
2016-10-18T01:23:51.119Z,0
2016-10-18T01:24:51.116Z,0
2016-10-18T01:25:51.103Z,0
2016-10-18T01:26:51.093Z,0
2016-10-18T01:27:51.086Z,0
2016-10-18T01:28:51.068Z,0
2016-10-18T01:29:51.061Z,0
2016-10-18T01:30:51.070Z,0
2016-10-18T01:31:51.072Z,0
2016-10-18T01:32:51.044Z,0
2016-10-18T01:33:51.029Z,0
2016-10-18T01:34:51.018Z,0
2016-10-18T01:35:51.017Z,0
2016-10-18T01:36:51.021Z,0
2016-10-18T01:37:51.009Z,0
2016-10-18T01:38:50.997Z,0
2016-10-18T01:39:50.977Z,0
2016-10-18T01:40:50.971Z,0
2016-10-18T01:41:50.971Z,0
2016-10-18T01:42:50.951Z,0
2016-10-18T01:43:50.950Z,0
2016-10-18T01:44:50.987Z,0
2016-10-18T01:45:50.955Z,0
2016-10-18T01:46:50.913Z,0
2016-10-18T01:47:50.912Z,0
2016-10-18T01:48:50.907Z,0
2016-10-18T01:49:50.896Z,0
2016-10-18T01:50:50.898Z,0
2016-10-18T01:51:50.876Z,0
2016-10-18T01:52:50.868Z,0
2016-10-18T01:53:50.853Z,0
2016-10-18T01:54:50.844Z,0
2016-10-18T01:55:50.848Z,0
2016-10-18T01:56:50.840Z,0
2016-10-18T01:57:50.892Z,0
2016-10-18T01:58:50.817Z,0
2016-10-18T01:59:50.806Z,0
2016-10-18T02:00:50.791Z,0
2016-10-18T02:01:50.785Z,0
2016-10-18T02:02:50.784Z,0
2016-10-18T02:03:50.788Z,0
2016-10-18T02:04:50.767Z,0
2016-10-18T02:05:51.247Z,0
2016-10-18T02:06:50.750Z,0
2016-10-18T02:07:51.842Z,0
2016-10-18T02:08:50.736Z,0
2016-10-18T02:09:50.775Z,0
2016-10-18T02:10:50.728Z,0
2016-10-18T02:11:50.696Z,0
2016-10-18T02:12:50.711Z,0
2016-10-18T02:13:50.695Z,0
2016-10-18T02:14:50.676Z,0
2016-10-18T02:15:50.694Z,0
2016-10-18T02:16:50.661Z,0
2016-10-18T02:17:50.657Z,0
2016-10-18T02:18:50.796Z,0
2016-10-18T02:19:50.629Z,0
2016-10-18T02:20:50.621Z,0
2016-10-18T02:21:50.628Z,0
2016-10-18T02:22:50.614Z,0
2016-10-18T02:23:50.612Z,0
2016-10-18T02:24:50.634Z,0
2016-10-18T02:25:50.590Z,0
2016-10-18T02:26:50.894Z,0
2016-10-18T02:27:50.563Z,0
2016-10-18T02:28:50.557Z,0
2016-10-18T02:29:50.556Z,0
2016-10-18T02:30:50.562Z,0
2016-10-18T02:31:50.531Z,0
2016-10-18T02:32:50.525Z,0
2016-10-18T02:33:50.533Z,0
2016-10-18T02:34:50.509Z,0
2016-10-18T02:35:50.505Z,0
2016-10-18T02:36:50.520Z,0
2016-10-18T02:37:50.478Z,0
2016-10-18T02:38:50.473Z,0
2016-10-18T02:39:50.463Z,0
2016-10-18T02:40:50.475Z,0
2016-10-18T02:41:50.453Z,0
2016-10-18T02:42:50.470Z,0
2016-10-18T02:43:50.463Z,0
2016-10-18T02:44:50.470Z,0
2016-10-18T02:45:50.445Z,0
2016-10-18T02:46:50.401Z,0
2016-10-18T02:47:50.395Z,0
2016-10-18T02:48:50.443Z,0
2016-10-18T02:49:50.417Z,0
2016-10-18T02:50:50.410Z,0
2016-10-18T02:51:50.472Z,0
2016-10-18T02:52:50.423Z,0
2016-10-18T02:53:50.429Z,0
2016-10-18T02:54:50.437Z,0
2016-10-18T02:55:50.446Z,0
2016-10-18T02:56:50.389Z,0
2016-10-18T02:57:50.357Z,0
2016-10-18T02:58:50.360Z,0
2016-10-18T02:59:50.370Z,0
2016-10-18T03:00:50.378Z,0
2016-10-18T03:01:50.386Z,0
2016-10-18T03:02:50.452Z,0
2016-10-18T03:03:50.339Z,0
2016-10-18T03:04:50.364Z,0
2016-10-18T03:05:50.344Z,0
2016-10-18T03:06:50.358Z,0
2016-10-18T03:07:50.365Z,0
2016-10-18T03:08:50.370Z,0
2016-10-18T03:09:50.383Z,0
2016-10-18T03:11:05.087Z,0
2016-10-18T03:11:50.289Z,0
2016-10-18T03:12:50.296Z,0
2016-10-18T03:13:50.308Z,0
2016-10-18T03:14:50.313Z,0
2016-10-18T03:15:50.316Z,0
2016-10-18T03:16:50.500Z,0
2016-10-18T03:17:50.337Z,0
2016-10-18T03:18:50.279Z,0
2016-10-18T03:19:50.287Z,0
2016-10-18T03:20:50.290Z,0
2016-10-18T03:21:50.363Z,0
2016-10-18T03:22:50.264Z,0
2016-10-18T03:23:50.411Z,0
2016-10-18T03:24:50.271Z,0
2016-10-18T03:25:50.223Z,0
2016-10-18T03:26:50.227Z,0
2016-10-18T03:27:50.239Z,0
2016-10-18T03:28:50.252Z,0
2016-10-18T03:29:50.252Z,0
2016-10-18T03:30:50.249Z,0
2016-10-18T03:31:50.262Z,0
2016-10-18T03:32:50.272Z,0
2016-10-18T03:33:50.286Z,0
2016-10-18T03:34:50.277Z,0
2016-10-18T03:35:50.187Z,0
2016-10-18T03:36:50.200Z,0
2016-10-18T03:37:50.208Z,0
2016-10-18T03:38:50.211Z,0
2016-10-18T03:39:50.214Z,0
2016-10-18T03:40:50.228Z,0
2016-10-18T03:41:50.233Z,0
2016-10-18T03:42:50.085Z,0
2016-10-18T03:43:50.237Z,0
2016-10-18T03:44:50.055Z,0
2016-10-18T03:45:50.111Z,0
2016-10-18T03:46:50.050Z,0
2016-10-18T03:47:50.034Z,0
2016-10-18T03:48:50.243Z,0
2016-10-18T03:49:50.042Z,0
2016-10-18T03:50:50.049Z,0
2016-10-18T03:51:50.055Z,0
2016-10-18T03:52:50.044Z,0
2016-10-18T03:53:50.045Z,0
2016-10-18T03:54:50.063Z,0
2016-10-18T03:55:50.024Z,0
2016-10-18T03:56:50.022Z,0
2016-10-18T03:57:50.020Z,0
2016-10-18T03:58:49.873Z,0
2016-10-18T03:59:49.780Z,0
2016-10-18T04:00:49.864Z,0
2016-10-18T04:01:49.858Z,0
2016-10-18T04:02:49.854Z,0
2016-10-18T04:03:49.857Z,0
2016-10-18T04:04:50.190Z,0
2016-10-18T04:05:49.864Z,0
2016-10-18T04:06:49.720Z,0
2016-10-18T04:07:49.727Z,0
2016-10-18T04:08:49.699Z,0
2016-10-18T04:09:49.697Z,0
2016-10-18T04:10:49.703Z,0
2016-10-18T04:11:49.722Z,0
2016-10-18T04:12:49.666Z,0
2016-10-18T04:13:49.661Z,0
2016-10-18T04:14:49.687Z,0
2016-10-18T04:15:49.634Z,0
2016-10-18T04:16:49.639Z,0
2016-10-18T04:17:49.623Z,0
2016-10-18T04:18:49.613Z,0
2016-10-18T04:19:49.607Z,0
2016-10-18T04:20:49.642Z,0
2016-10-18T04:21:49.590Z,0
2016-10-18T04:22:49.580Z,0
2016-10-18T04:23:49.584Z,0
2016-10-18T04:24:49.567Z,0
2016-10-18T04:26:04.454Z,0
2016-10-18T04:26:49.550Z,0
2016-10-18T04:27:49.556Z,0
2016-10-18T04:28:49.527Z,0
2016-10-18T04:29:49.529Z,0
2016-10-18T04:30:49.510Z,0
2016-10-18T04:31:49.523Z,0
2016-10-18T04:32:49.494Z,0
2016-10-18T04:33:49.490Z,0
2016-10-18T04:34:49.472Z,0
2016-10-18T04:35:49.464Z,0
2016-10-18T04:36:49.469Z,0
2016-10-18T04:37:49.463Z,0
2016-10-18T04:38:49.454Z,0
2016-10-18T04:39:49.444Z,0
2016-10-18T04:40:49.436Z,0
2016-10-18T04:41:49.427Z,0
2016-10-18T04:42:49.421Z,0
2016-10-18T04:43:49.401Z,0
2016-10-18T04:44:49.442Z,0
2016-10-18T04:45:49.382Z,0
2016-10-18T04:46:49.447Z,0
2016-10-18T04:47:49.419Z,0
2016-10-18T04:48:49.364Z,0
2016-10-18T04:49:49.349Z,0
2016-10-18T04:50:49.373Z,0
2016-10-18T04:51:49.334Z,0
2016-10-18T04:52:49.360Z,0
2016-10-18T04:53:49.328Z,0
2016-10-18T04:54:49.347Z,0
2016-10-18T04:55:49.299Z,0
2016-10-18T04:56:49.657Z,0
2016-10-18T04:57:49.288Z,0
2016-10-18T04:58:49.271Z,0
2016-10-18T04:59:49.264Z,0
2016-10-18T05:00:49.270Z,0
2016-10-18T05:01:49.248Z,0
2016-10-18T05:02:49.248Z,0
2016-10-18T05:03:49.233Z,0
2016-10-18T05:04:49.228Z,0
2016-10-18T05:05:49.214Z,0
2016-10-18T05:06:49.210Z,0
2016-10-18T05:07:49.200Z,0
2016-10-18T05:08:49.185Z,0
2016-10-18T05:09:49.181Z,0
2016-10-18T05:10:49.175Z,0
2016-10-18T05:11:49.171Z,0
2016-10-18T05:12:49.150Z,0
2016-10-18T05:13:49.150Z,0
2016-10-18T05:14:49.177Z,0
2016-10-18T05:15:49.165Z,0
2016-10-18T05:16:49.136Z,0
2016-10-18T05:17:49.108Z,0
2016-10-18T05:18:49.109Z,0
2016-10-18T05:19:49.100Z,0
2016-10-18T05:20:49.089Z,0
2016-10-18T05:21:49.071Z,0
2016-10-18T05:22:49.075Z,0
2016-10-18T05:23:49.108Z,0
2016-10-18T05:24:49.060Z,0
2016-10-18T05:25:49.045Z,0
2016-10-18T05:26:49.040Z,0
2016-10-18T05:27:49.050Z,0
2016-10-18T05:28:49.056Z,0
2016-10-18T05:29:49.018Z,0
2016-10-18T05:30:49.009Z,0
2016-10-18T05:31:48.994Z,0
2016-10-18T05:32:48.998Z,0
2016-10-18T05:33:49.180Z,0
2016-10-18T05:34:48.967Z,0
2016-10-18T05:35:48.961Z,0
2016-10-18T05:36:48.955Z,0
2016-10-18T05:37:48.949Z,0
2016-10-18T05:38:48.933Z,0
2016-10-18T05:39:48.926Z,0
2016-10-18T05:40:48.930Z,0
2016-10-18T05:41:48.903Z,0
2016-10-18T05:42:48.908Z,0
2016-10-18T05:43:48.900Z,0
2016-10-18T05:44:48.886Z,0
2016-10-18T05:45:48.888Z,5
2016-10-18T05:46:48.926Z,5
2016-10-18T05:47:48.865Z,5
2016-10-18T05:48:48.889Z,5
2016-10-18T05:49:48.847Z,5
2016-10-18T05:50:48.838Z,5
2016-10-18T05:51:48.840Z,5
2016-10-18T05:52:48.817Z,5
2016-10-18T05:53:48.813Z,5
2016-10-18T05:54:48.804Z,5
2016-10-18T05:55:48.791Z,5
2016-10-18T05:56:48.796Z,5
2016-10-18T05:57:48.782Z,5
2016-10-18T05:58:48.811Z,5
2016-10-18T05:59:48.756Z,5
2016-10-18T06:00:48.749Z,5
2016-10-18T06:01:48.749Z,5
2016-10-18T06:02:48.743Z,5
2016-10-18T06:03:48.736Z,5
2016-10-18T06:04:48.729Z,5
2016-10-18T06:05:48.714Z,5
2016-10-18T06:06:48.719Z,5
2016-10-18T06:07:48.696Z,5
2016-10-18T06:08:48.687Z,5
2016-10-18T06:09:48.761Z,10
2016-10-18T06:10:48.676Z,10
2016-10-18T06:11:48.661Z,10
2016-10-18T06:12:48.652Z,10
2016-10-18T06:13:48.659Z,15
2016-10-18T06:14:48.653Z,15
2016-10-18T06:15:48.631Z,15
2016-10-18T06:16:48.625Z,15
2016-10-18T06:17:48.627Z,15
2016-10-18T06:18:48.638Z,20
2016-10-18T06:19:48.595Z,20
2016-10-18T06:20:48.588Z,25
2016-10-18T06:21:48.619Z,25
2016-10-18T06:22:48.572Z,30
2016-10-18T06:23:48.573Z,35
2016-10-18T06:24:48.566Z,35
2016-10-18T06:25:48.553Z,40
2016-10-18T06:26:48.548Z,45
2016-10-18T06:27:48.540Z,50
2016-10-18T06:28:48.531Z,50
2016-10-18T06:29:48.518Z,55
2016-10-18T06:30:48.716Z,60
2016-10-18T06:31:48.502Z,60
2016-10-18T06:32:48.499Z,60
2016-10-18T06:33:48.491Z,50
2016-10-18T06:34:48.493Z,45
2016-10-18T06:35:48.471Z,45
2016-10-18T06:36:48.454Z,45
2016-10-18T06:37:48.463Z,45
2016-10-18T06:38:48.457Z,50
2016-10-18T06:39:48.440Z,50
2016-10-18T06:40:48.427Z,50
2016-10-18T06:41:48.417Z,50
2016-10-18T06:42:48.421Z,50
2016-10-18T06:43:48.405Z,50
2016-10-18T06:44:48.400Z,45
2016-10-18T06:45:48.389Z,45
2016-10-18T06:46:48.385Z,40
2016-10-18T06:47:48.379Z,35
2016-10-18T06:48:48.363Z,30
2016-10-18T06:49:48.373Z,30
2016-10-18T06:50:48.386Z,25
2016-10-18T06:51:48.351Z,25
2016-10-18T06:52:48.665Z,25
2016-10-18T06:53:48.328Z,25
2016-10-18T06:54:48.316Z,25
2016-10-18T06:55:48.313Z,25
2016-10-18T06:56:48.297Z,25
2016-10-18T06:57:48.316Z,25
2016-10-18T06:58:48.336Z,25
2016-10-18T06:59:48.280Z,25
2016-10-18T07:00:48.275Z,25
2016-10-18T07:01:48.264Z,25
2016-10-18T07:02:48.258Z,20
2016-10-18T07:03:48.241Z,20
2016-10-18T07:04:48.242Z,20
2016-10-18T07:05:48.244Z,20
2016-10-18T07:06:48.227Z,20
2016-10-18T07:07:48.210Z,20
2016-10-18T07:08:48.528Z,25
2016-10-18T07:09:48.193Z,20
2016-10-18T07:10:48.513Z,15
2016-10-18T07:11:48.185Z,15
2016-10-18T07:12:48.176Z,15
2016-10-18T07:13:48.169Z,15
2016-10-18T07:14:48.355Z,15
2016-10-18T07:15:48.138Z,20
2016-10-18T07:16:48.185Z,20
2016-10-18T07:17:48.133Z,20
2016-10-18T07:18:48.123Z,25
2016-10-18T07:19:48.112Z,25
2016-10-18T07:20:48.115Z,35
2016-10-18T07:21:48.098Z,45
2016-10-18T07:22:48.091Z,50
2016-10-18T07:23:48.084Z,55
2016-10-18T07:24:48.077Z,55
2016-10-18T07:25:48.062Z,45
2016-10-18T07:26:48.056Z,45
2016-10-18T07:27:48.055Z,45
2016-10-18T07:28:48.039Z,45
2016-10-18T07:29:48.031Z,40
2016-10-18T07:30:48.022Z,40
2016-10-18T07:31:48.014Z,40
2016-10-18T07:32:48.012Z,50
2016-10-18T07:33:48.014Z,45
2016-10-18T07:34:48.023Z,45
2016-10-18T07:35:48.028Z,45
2016-10-18T07:36:47.979Z,45
2016-10-18T07:37:47.967Z,45
2016-10-18T07:38:47.970Z,45
2016-10-18T07:39:47.965Z,50
2016-10-18T07:40:47.964Z,55
2016-10-18T07:41:47.981Z,55
2016-10-18T07:42:47.974Z,50
2016-10-18T07:43:47.991Z,45
2016-10-18T07:44:47.996Z,45
2016-10-18T07:45:48.234Z,40
2016-10-18T07:46:47.951Z,40
2016-10-18T07:47:47.947Z,40
2016-10-18T07:48:47.954Z,35
2016-10-18T07:49:47.962Z,40
2016-10-18T07:50:47.938Z,40
2016-10-18T07:51:47.933Z,40
2016-10-18T07:52:47.942Z,45
2016-10-18T07:53:47.953Z,50
2016-10-18T07:54:47.907Z,50
2016-10-18T07:55:47.908Z,40
2016-10-18T07:56:47.912Z,35
2016-10-18T07:57:47.916Z,35
2016-10-18T07:58:47.936Z,40
2016-10-18T07:59:47.934Z,40
2016-10-18T08:00:47.943Z,45
2016-10-18T08:01:47.954Z,45
2016-10-18T08:02:47.857Z,45
2016-10-18T08:03:47.969Z,45
2016-10-18T08:04:47.877Z,50
2016-10-18T08:05:47.869Z,50
2016-10-18T08:06:47.884Z,55
2016-10-18T08:08:02.637Z,55
2016-10-18T08:08:47.896Z,55
2016-10-18T08:09:47.906Z,60
2016-10-18T08:10:47.906Z,60
2016-10-18T08:11:47.774Z,60
2016-10-18T08:12:47.922Z,60
2016-10-18T08:13:47.791Z,60
2016-10-18T08:14:47.942Z,55
2016-10-18T08:15:47.903Z,55
2016-10-18T08:16:47.851Z,50
2016-10-18T08:17:47.863Z,50
2016-10-18T08:18:47.728Z,45
2016-10-18T08:19:47.729Z,45
2016-10-18T08:20:47.736Z,50
2016-10-18T08:21:47.950Z,50
2016-10-18T08:22:47.752Z,60
2016-10-18T08:23:47.762Z,70
2016-10-18T08:24:47.763Z,75
2016-10-18T08:25:47.770Z,70
2016-10-18T08:26:47.780Z,70
2016-10-18T08:27:47.691Z,75
2016-10-18T08:28:47.689Z,75
2016-10-18T08:29:47.704Z,80
2016-10-18T08:30:47.710Z,90
2016-10-18T08:31:47.714Z,100
2016-10-18T08:32:47.726Z,100
2016-10-18T08:33:47.723Z,105
2016-10-18T08:34:47.736Z,105
2016-10-18T08:35:47.713Z,100
2016-10-18T08:36:47.566Z,105
2016-10-18T08:37:47.550Z,125
2016-10-18T08:38:47.581Z,125
2016-10-18T08:39:47.561Z,120
2016-10-18T08:40:47.679Z,120
2016-10-18T08:41:47.688Z,105
2016-10-18T08:42:47.686Z,105
2016-10-18T08:43:47.515Z,105
2016-10-18T08:44:47.547Z,110
2016-10-18T08:45:47.524Z,120
2016-10-18T08:46:47.533Z,110
2016-10-18T08:47:47.516Z,110
2016-10-18T08:48:47.512Z,105
2016-10-18T08:49:47.511Z,105
2016-10-18T08:50:47.748Z,105
2016-10-18T08:51:47.482Z,105
2016-10-18T08:52:47.505Z,100
2016-10-18T08:53:47.476Z,95
2016-10-18T08:54:47.358Z,90
2016-10-18T08:55:47.364Z,85
2016-10-18T08:56:47.476Z,85
2016-10-18T08:57:47.337Z,90
2016-10-18T08:58:47.492Z,90
2016-10-18T08:59:47.471Z,90
2016-10-18T09:00:47.313Z,105
2016-10-18T09:01:47.356Z,110
2016-10-18T09:02:47.306Z,95
2016-10-18T09:03:47.735Z,85
2016-10-18T09:04:47.278Z,80
2016-10-18T09:05:47.295Z,85
2016-10-18T09:06:47.274Z,95
2016-10-18T09:07:47.272Z,95
2016-10-18T09:08:47.255Z,85
2016-10-18T09:09:47.290Z,80
2016-10-18T09:10:47.263Z,80
2016-10-18T09:11:47.230Z,75
2016-10-18T09:12:47.224Z,70
2016-10-18T09:13:47.706Z,65
2016-10-18T09:14:47.715Z,60
2016-10-18T09:15:47.215Z,60
2016-10-18T09:16:47.232Z,60
2016-10-18T09:17:47.209Z,60
2016-10-18T09:18:47.184Z,65
2016-10-18T09:19:47.221Z,65
2016-10-18T09:20:47.200Z,75
2016-10-18T09:21:47.175Z,85
2016-10-18T09:22:47.169Z,95
2016-10-18T09:23:47.162Z,100
2016-10-18T09:24:47.153Z,105
2016-10-18T09:25:47.160Z,105
2016-10-18T09:26:47.130Z,95
2016-10-18T09:27:47.119Z,100
2016-10-18T09:28:47.131Z,105
2016-10-18T09:29:47.118Z,110
2016-10-18T09:30:47.095Z,125
2016-10-18T09:31:47.099Z,125
2016-10-18T09:32:47.094Z,120
2016-10-18T09:33:47.102Z,110
2016-10-18T09:34:47.080Z,100
2016-10-18T09:35:47.057Z,90
2016-10-18T09:36:47.044Z,90
2016-10-18T09:37:47.044Z,95
2016-10-18T09:38:47.484Z,100
2016-10-18T09:39:47.046Z,100
2016-10-18T09:40:47.017Z,105
2016-10-18T09:41:47.056Z,110
2016-10-18T09:42:47.015Z,110
2016-10-18T09:43:47.008Z,95
2016-10-18T09:44:47.195Z,85
2016-10-18T09:45:46.996Z,75
2016-10-18T09:46:46.987Z,70
2016-10-18T09:47:46.990Z,60
2016-10-18T09:48:47.011Z,50
2016-10-18T09:49:46.962Z,45
2016-10-18T09:50:46.956Z,45
2016-10-18T09:51:46.945Z,45
2016-10-18T09:52:46.945Z,50
2016-10-18T09:53:46.951Z,45
2016-10-18T09:54:46.931Z,45
2016-10-18T09:55:46.915Z,50
2016-10-18T09:56:46.913Z,65
2016-10-18T09:57:46.905Z,80
2016-10-18T09:58:46.893Z,85
2016-10-18T09:59:46.886Z,90
2016-10-18T10:00:46.889Z,100
2016-10-18T10:01:46.868Z,110
2016-10-18T10:02:46.868Z,125
2016-10-18T10:03:47.139Z,145
2016-10-18T10:04:46.860Z,160
2016-10-18T10:05:46.892Z,170
2016-10-18T10:06:46.836Z,175
2016-10-18T10:07:46.880Z,170
2016-10-18T10:08:46.852Z,165
2016-10-18T10:09:47.165Z,170
2016-10-18T10:10:46.804Z,170
2016-10-18T10:11:46.820Z,180
2016-10-18T10:12:46.800Z,180
2016-10-18T10:13:47.104Z,185
2016-10-18T10:14:46.789Z,180
2016-10-18T10:15:46.790Z,180
2016-10-18T10:16:46.797Z,175
2016-10-18T10:17:46.757Z,180
2016-10-18T10:18:46.762Z,195
2016-10-18T10:19:46.747Z,195
2016-10-18T10:20:46.756Z,205
2016-10-18T10:21:46.745Z,205
2016-10-18T10:22:46.731Z,210
2016-10-18T10:23:47.066Z,220
2016-10-18T10:24:46.706Z,220
2016-10-18T10:25:46.714Z,215
2016-10-18T10:26:46.719Z,210
2016-10-18T10:27:46.704Z,215
2016-10-18T10:28:46.689Z,215
2016-10-18T10:29:46.684Z,210
2016-10-18T10:30:46.680Z,205
2016-10-18T10:31:46.661Z,205
2016-10-18T10:32:46.700Z,220
2016-10-18T10:33:46.693Z,235
2016-10-18T10:34:46.638Z,250
2016-10-18T10:35:46.656Z,255
2016-10-18T10:36:46.634Z,245
2016-10-18T10:37:46.669Z,230
2016-10-18T10:38:46.673Z,235
2016-10-18T10:39:46.619Z,255
2016-10-18T10:40:46.610Z,275
2016-10-18T10:41:46.601Z,275
2016-10-18T10:42:46.598Z,255
2016-10-18T10:43:46.643Z,215
2016-10-18T10:44:46.601Z,200
2016-10-18T10:45:46.587Z,195
2016-10-18T10:46:46.609Z,190
2016-10-18T10:47:46.576Z,185
2016-10-18T10:48:46.624Z,175
2016-10-18T10:49:46.560Z,160
2016-10-18T10:50:46.546Z,150
2016-10-18T10:51:46.544Z,150
2016-10-18T10:52:46.570Z,165
2016-10-18T10:53:46.542Z,185
2016-10-18T10:54:46.539Z,205
2016-10-18T10:55:46.526Z,220
2016-10-18T10:56:46.517Z,225
2016-10-18T10:57:46.506Z,210
2016-10-18T10:58:46.508Z,190
2016-10-18T10:59:46.496Z,155
2016-10-18T11:00:46.503Z,120
2016-10-18T11:01:46.490Z,100
2016-10-18T11:02:46.483Z,100
2016-10-18T11:03:46.551Z,110
2016-10-18T11:04:46.513Z,125
2016-10-18T11:05:46.464Z,150
2016-10-18T11:06:46.460Z,195
2016-10-18T11:07:46.465Z,245
2016-10-18T11:08:46.459Z,310
2016-10-18T11:09:46.451Z,330
2016-10-18T11:10:46.456Z,340
2016-10-18T11:11:46.477Z,340
2016-10-18T11:12:46.467Z,335
2016-10-18T11:13:46.425Z,300
2016-10-18T11:14:46.414Z,275
2016-10-18T11:15:46.415Z,255
2016-10-18T11:16:46.422Z,245
2016-10-18T11:17:46.397Z,235
2016-10-18T11:18:46.403Z,225
2016-10-18T11:19:46.390Z,215
2016-10-18T11:20:46.377Z,220
2016-10-18T11:21:46.379Z,230
2016-10-18T11:22:46.372Z,235
2016-10-18T11:23:46.370Z,240
2016-10-18T11:24:46.762Z,240
2016-10-18T11:25:46.408Z,250
2016-10-18T11:26:46.391Z,265
2016-10-18T11:27:46.399Z,280
2016-10-18T11:28:46.402Z,295
2016-10-18T11:29:46.409Z,305
2016-10-18T11:30:46.321Z,310
2016-10-18T11:31:46.363Z,305
2016-10-18T11:32:46.331Z,280
2016-10-18T11:33:46.331Z,255
2016-10-18T11:34:46.342Z,235
2016-10-18T11:35:46.353Z,230
2016-10-18T11:36:46.362Z,240
2016-10-18T11:37:46.358Z,250
2016-10-18T11:38:46.368Z,260
2016-10-18T11:39:46.434Z,255
2016-10-18T11:40:46.386Z,250
2016-10-18T11:41:46.330Z,245
2016-10-18T11:42:46.332Z,235
2016-10-18T11:43:46.302Z,225
2016-10-18T11:44:46.314Z,220
2016-10-18T11:45:46.413Z,215
2016-10-18T11:46:46.328Z,200
2016-10-18T11:47:46.337Z,190
2016-10-18T11:48:46.348Z,185
2016-10-18T11:49:46.297Z,185
2016-10-18T11:50:46.304Z,180
2016-10-18T11:51:46.312Z,175
2016-10-18T11:52:46.304Z,180
2016-10-18T11:53:46.656Z,175
2016-10-18T11:54:46.332Z,170
2016-10-18T11:55:46.362Z,160
2016-10-18T11:56:46.297Z,145
2016-10-18T11:57:46.292Z,135
2016-10-18T11:58:46.240Z,120
2016-10-18T11:59:46.295Z,110
2016-10-18T12:00:46.261Z,105
2016-10-18T12:01:46.270Z,105
2016-10-18T12:02:46.284Z,115
2016-10-18T12:03:46.299Z,135
2016-10-18T12:04:46.306Z,155
2016-10-18T12:05:46.292Z,180
2016-10-18T12:06:46.303Z,200
2016-10-18T12:07:46.332Z,210
2016-10-18T12:08:46.225Z,205
2016-10-18T12:09:46.221Z,185
2016-10-18T12:10:46.556Z,170
2016-10-18T12:11:46.254Z,160
2016-10-18T12:12:46.244Z,155
2016-10-18T12:13:46.285Z,155
2016-10-18T12:14:46.270Z,155
2016-10-18T12:15:46.274Z,170
2016-10-18T12:16:46.273Z,180
2016-10-18T12:17:46.291Z,175
2016-10-18T12:18:46.299Z,170
2016-10-18T12:19:46.293Z,170
2016-10-18T12:20:46.223Z,180
2016-10-18T12:21:46.212Z,190
2016-10-18T12:22:46.226Z,195
2016-10-18T12:23:46.209Z,195
2016-10-18T12:24:46.217Z,195
2016-10-18T12:25:46.246Z,190
2016-10-18T12:26:46.256Z,180
2016-10-18T12:27:46.264Z,180
2016-10-18T12:28:46.226Z,180
2016-10-18T12:29:46.198Z,175
2016-10-18T12:30:46.195Z,175
2016-10-18T12:31:46.210Z,175
2016-10-18T12:32:46.228Z,175
2016-10-18T12:33:46.235Z,165
2016-10-18T12:34:46.200Z,155
2016-10-18T12:35:46.217Z,145
2016-10-18T12:36:46.143Z,140
2016-10-18T12:37:46.141Z,135
2016-10-18T12:38:46.147Z,130
2016-10-18T12:39:46.173Z,120
2016-10-18T12:40:46.362Z,110
2016-10-18T12:41:46.184Z,105
2016-10-18T12:42:46.192Z,100
2016-10-18T12:43:46.180Z,100
2016-10-18T12:44:46.190Z,105
2016-10-18T12:45:46.201Z,110
2016-10-18T12:46:46.213Z,105
2016-10-18T12:47:46.125Z,105
2016-10-18T12:48:46.123Z,105
2016-10-18T12:49:46.132Z,105
2016-10-18T12:50:46.138Z,110
2016-10-18T12:51:46.134Z,115
2016-10-18T12:52:46.469Z,125
2016-10-18T12:53:46.156Z,130
2016-10-18T12:54:46.184Z,145
2016-10-18T12:55:46.178Z,165
2016-10-18T12:56:46.220Z,185
2016-10-18T12:57:46.252Z,205
2016-10-18T12:58:46.056Z,225
2016-10-18T12:59:46.106Z,235
2016-10-18T13:00:46.104Z,240
2016-10-18T13:01:46.428Z,235
2016-10-18T13:02:46.121Z,225
2016-10-18T13:03:46.131Z,215
2016-10-18T13:04:46.210Z,210
2016-10-18T13:05:46.163Z,200
2016-10-18T13:06:46.145Z,190
2016-10-18T13:07:46.010Z,180
2016-10-18T13:08:46.418Z,170
2016-10-18T13:09:46.140Z,160
2016-10-18T13:10:45.994Z,165
2016-10-18T13:11:45.980Z,165
2016-10-18T13:12:46.086Z,170
2016-10-18T13:13:46.111Z,170
2016-10-18T13:14:46.132Z,170
2016-10-18T13:15:46.096Z,185
2016-10-18T13:16:45.972Z,185
2016-10-18T13:17:45.999Z,180
2016-10-18T13:18:45.955Z,170
2016-10-18T13:19:46.083Z,165
2016-10-18T13:20:45.941Z,160
2016-10-18T13:21:46.023Z,160
2016-10-18T13:22:45.995Z,160
2016-10-18T13:23:45.980Z,155
2016-10-18T13:24:46.332Z,155
2016-10-18T13:25:45.945Z,160
2016-10-18T13:26:45.947Z,165
2016-10-18T13:27:45.950Z,165
2016-10-18T13:28:45.968Z,170
2016-10-18T13:29:45.957Z,175
2016-10-18T13:30:45.982Z,185
2016-10-18T13:31:45.935Z,190
2016-10-18T13:32:45.942Z,180
2016-10-18T13:33:45.933Z,165
2016-10-18T13:34:45.935Z,160
2016-10-18T13:35:45.784Z,155
2016-10-18T13:36:45.783Z,150
2016-10-18T13:37:45.779Z,145
2016-10-18T13:38:45.925Z,140
2016-10-18T13:39:45.765Z,130
2016-10-18T13:40:45.803Z,125
2016-10-18T13:41:45.762Z,120
2016-10-18T13:42:45.777Z,120
2016-10-18T13:43:45.777Z,120
2016-10-18T13:44:45.764Z,115
2016-10-18T13:45:45.774Z,125
2016-10-18T13:46:45.766Z,135
2016-10-18T13:47:46.092Z,145
2016-10-18T13:48:45.759Z,155
2016-10-18T13:49:46.124Z,160
2016-10-18T13:50:45.844Z,165
2016-10-18T13:51:45.628Z,165
2016-10-18T13:52:45.615Z,165
2016-10-18T13:53:45.629Z,165
2016-10-18T13:54:45.628Z,160
2016-10-18T13:55:45.600Z,140
2016-10-18T13:56:45.598Z,125
2016-10-18T13:57:45.621Z,130
2016-10-18T13:58:45.620Z,130
2016-10-18T13:59:45.636Z,130
2016-10-18T14:00:45.573Z,140
2016-10-18T14:01:45.570Z,150
2016-10-18T14:02:45.559Z,155
2016-10-18T14:03:45.552Z,155
2016-10-18T14:04:45.556Z,150
2016-10-18T14:05:45.577Z,150
2016-10-18T14:06:45.544Z,145
2016-10-18T14:07:45.540Z,145
2016-10-18T14:08:45.525Z,150
2016-10-18T14:09:45.530Z,140
2016-10-18T14:10:45.532Z,145
2016-10-18T14:11:45.514Z,145
2016-10-18T14:12:45.510Z,150
2016-10-18T14:13:45.963Z,150
2016-10-18T14:14:45.546Z,150
2016-10-18T14:15:45.494Z,155
2016-10-18T14:16:45.498Z,150
2016-10-18T14:17:45.491Z,145
2016-10-18T14:18:45.486Z,145